Time;durP1;ratioP1;P1;durP2;ratioP2;P2;SDS_P1;SDS_P2;PMS_P1;PMS_P2;Temp;Humidity;BMP_temperature;BMP_pressure;BME280_temperature;BME280_humidity;BME280_pressure;Samples;Min_cycle;Max_cycle;Signal;HPM_P1;HPM_P2
2023/04/11 00:02:39;;;;;;;1.83;1.23;;;;;;;20.54;49.67;100296.38;20660132;28;20043;-66
2023/04/11 00:12:41;;;;;;;1.35;1.00;;;;;;;20.50;49.29;100270.69;20657963;28;20423;-67
2023/04/11 00:22:43;;;;;;;1.63;0.93;;;;;;;20.45;48.91;100264.97;20658416;28;20059;-67
2023/04/11 00:32:46;;;;;;;0.98;0.73;;;;;;;20.47;48.68;100273.75;20656353;28;20529;-67
2023/04/11 00:42:47;;;;;;;1.85;0.80;;;;;;;20.43;48.54;100282.19;20639739;28;20134;-67
2023/04/11 00:52:52;;;;;;;1.65;0.90;;;;;;;20.42;48.27;100294.03;20656041;28;20384;-67
2023/04/11 01:02:54;;;;;;;1.25;0.68;;;;;;;20.40;47.93;100284.38;20622504;28;20054;-67
2023/04/11 01:12:58;;;;;;;0.70;0.60;;;;;;;20.41;47.96;100281.53;20655017;28;20054;-66
2023/04/11 01:23:01;;;;;;;1.33;0.47;;;;;;;20.42;47.64;100288.63;20653160;28;20587;-67
2023/04/11 01:33:03;;;;;;;0.53;0.50;;;;;;;20.43;47.58;100294.84;20653551;28;20507;-67
2023/04/11 01:43:07;;;;;;;0.63;0.50;;;;;;;20.42;47.48;100291.31;20652636;28;20050;-67
2023/04/11 01:53:09;;;;;;;0.73;0.52;;;;;;;20.41;47.30;100292.34;20652282;28;20046;-67
2023/04/11 02:03:11;;;;;;;0.75;0.50;;;;;;;20.41;47.14;100294.16;20652723;28;20451;-66
2023/04/11 02:13:13;;;;;;;1.08;0.50;;;;;;;20.40;47.03;100289.78;20651727;28;20086;-67
2023/04/11 02:23:15;;;;;;;0.85;0.50;;;;;;;20.39;46.98;100277.28;20653536;28;20057;-67
2023/04/11 02:33:16;;;;;;;1.20;0.47;;;;;;;20.37;47.12;100295.53;20653609;28;20133;-67
2023/04/11 02:43:18;;;;;;;1.13;0.60;;;;;;;20.31;47.01;100323.22;20666562;28;20086;-67
2023/04/11 02:53:20;;;;;;;1.35;0.63;;;;;;;20.32;46.87;100309.53;20664085;28;20050;-67
2023/04/11 03:03:23;;;;;;;1.47;0.67;;;;;;;20.28;46.88;100302.78;20663888;28;20061;-67
2023/04/11 03:13:25;;;;;;;0.85;0.50;;;;;;;20.25;46.86;100305.81;20663129;28;20098;-67
2023/04/11 03:23:28;;;;;;;0.77;0.50;;;;;;;20.22;46.84;100298.03;20661959;28;20132;-67
2023/04/11 03:33:31;;;;;;;1.42;0.60;;;;;;;20.19;47.11;100303.78;20662776;28;20047;-66
2023/04/11 03:43:34;;;;;;;0.90;0.60;;;;;;;20.18;46.85;100318.28;20660969;28;20050;-67
2023/04/11 03:53:36;;;;;;;1.30;0.80;;;;;;;20.18;47.09;100315.59;20643785;28;20061;-66
2023/04/11 04:03:51;;;;;;;1.98;0.98;;;;;;;20.14;47.08;100310.53;20658912;28;20042;-67
2023/04/11 04:13:54;;;;;;;1.25;0.70;;;;;;;20.15;47.02;100324.91;20658440;28;20054;-67
2023/04/11 04:23:56;;;;;;;1.83;0.63;;;;;;;20.13;47.02;100325.06;20657628;28;20054;-66
2023/04/11 04:34:07;;;;;;;1.38;0.68;;;;;;;20.11;47.42;100329.78;20657293;28;20078;-67
2023/04/11 04:44:11;;;;;;;1.07;0.60;;;;;;;20.04;47.31;100328.75;20656458;28;20050;-66
2023/04/11 04:54:18;;;;;;;1.75;0.68;;;;;;;20.09;47.36;100350.72;20655571;28;20514;-67
2023/04/11 05:04:21;;;;;;;1.17;0.60;;;;;;;20.09;47.31;100358.81;20655833;28;20418;-67
2023/04/11 05:14:27;;;;;;;2.15;0.80;;;;;;;20.09;47.35;100366.94;20654520;28;20054;-67
2023/04/11 05:24:29;;;;;;;1.23;0.60;;;;;;;20.08;47.11;100383.28;20654391;28;20105;-66
2023/04/11 05:34:33;;;;;;;0.80;0.50;;;;;;;20.07;47.16;100374.34;20653806;28;20451;-67
2023/04/11 05:44:35;;;;;;;1.40;0.52;;;;;;;20.05;47.18;100389.88;20653118;28;20054;-66
2023/04/11 05:54:36;;;;;;;2.10;0.70;;;;;;;20.05;47.15;100403.38;20654308;28;20058;-67
2023/04/11 06:04:38;;;;;;;1.95;0.60;;;;;;;20.06;47.25;100429.41;20653175;28;20054;-67
2023/04/11 06:14:40;;;;;;;2.00;0.60;;;;;;;20.08;47.32;100429.22;20639242;28;20582;-66
2023/04/11 06:24:46;;;;;;;2.17;0.70;;;;;;;20.08;47.50;100442.72;20648061;28;20134;-66
2023/04/11 06:34:47;;;;;;;1.80;0.70;;;;;;;20.10;47.57;100446.97;20653989;28;20042;-66
2023/04/11 06:44:49;;;;;;;1.48;0.60;;;;;;;20.16;47.71;100463.56;20647185;28;20046;-67
2023/04/11 06:54:50;;;;;;;2.53;0.75;;;;;;;20.21;47.81;100480.13;20643274;28;20038;-66
2023/04/11 07:04:52;;;;;;;1.23;0.57;;;;;;;20.23;47.58;100499.72;20655506;28;20134;-67
2023/04/11 07:14:54;;;;;;;1.40;0.60;;;;;;;20.22;47.85;100508.84;20649542;28;20426;-67
2023/04/11 07:24:56;;;;;;;1.42;0.70;;;;;;;20.39;47.70;100523.28;20644500;28;20066;-67
2023/04/11 07:34:57;;;;;;;1.60;0.77;;;;;;;20.36;47.66;100540.72;20646733;28;20419;-68
2023/04/11 07:44:59;;;;;;;2.50;1.08;;;;;;;20.33;47.80;100548.28;20649037;28;20054;-67
2023/04/11 07:55:01;;;;;;;3.28;1.05;;;;;;;20.33;48.01;100559.94;20654079;28;20054;-67
2023/04/11 08:05:02;;;;;;;4.22;1.00;;;;;;;20.37;48.11;100561.31;20646096;28;20126;-69
2023/04/11 08:15:05;;;;;;;2.30;0.98;;;;;;;20.41;47.91;100578.91;20625270;28;20081;-68
2023/04/11 08:25:31;;;;;;;1.85;0.85;;;;;;;20.39;48.01;100586.34;20645481;28;20055;-68
2023/04/11 08:35:36;;;;;;;3.55;0.88;;;;;;;20.68;47.74;100597.81;20632019;28;20070;-68
2023/04/11 08:45:39;;;;;;;2.03;0.80;;;;;;;20.82;47.67;100604.50;20607569;28;20056;-67
2023/04/11 08:55:47;;;;;;;3.30;0.90;;;;;;;21.10;47.12;100607.78;20624636;28;20041;-68
2023/04/11 09:05:49;;;;;;;2.10;0.95;;;;;;;21.29;46.52;100603.09;20630797;28;20046;-68
2023/04/11 09:16:11;;;;;;;1.65;0.70;;;;;;;21.46;46.11;100616.69;20614212;28;21480;-68
2023/04/11 09:26:24;;;;;;;1.25;0.75;;;;;;;21.55;46.03;100629.22;20623665;28;20546;-67
2023/04/11 09:36:27;;;;;;;2.42;0.63;;;;;;;21.48;46.33;100650.69;20617248;28;20441;-67
2023/04/11 09:46:29;;;;;;;2.13;0.70;;;;;;;21.51;46.64;100639.50;20604262;28;20050;-67
2023/04/11 09:56:30;;;;;;;1.63;0.82;;;;;;;21.51;46.89;100663.88;20646078;28;20055;-67
2023/04/11 10:06:51;;;;;;;1.55;0.73;;;;;;;21.47;47.03;100673.38;20628337;28;20053;-67
2023/04/11 10:17:15;;;;;;;3.63;1.27;;;;;;;21.49;46.97;100673.22;20640120;28;20700;-68
2023/04/11 10:27:45;;;;;;;2.47;1.00;;;;;;;21.50;46.74;100670.31;20647520;28;20049;-68
2023/04/11 10:37:47;;;;;;;3.88;1.13;;;;;;;21.43;46.68;100690.97;20641604;28;20105;-69
2023/04/11 10:47:55;;;;;;;3.53;0.63;;;;;;;21.35;46.56;100688.22;20658419;28;20707;-69
2023/04/11 10:58:12;;;;;;;1.80;0.60;;;;;;;21.32;46.46;100693.97;20663464;28;20174;-68
2023/04/11 11:08:15;;;;;;;2.13;0.80;;;;;;;21.33;46.05;100706.50;20645671;28;20057;-69
2023/04/11 11:18:17;;;;;;;2.05;0.70;;;;;;;21.34;45.75;100719.03;20624505;28;20047;-69
2023/04/11 11:28:19;;;;;;;2.50;0.82;;;;;;;21.32;45.66;100726.47;20604532;28;20039;-69
2023/04/11 11:38:23;;;;;;;1.77;0.60;;;;;;;21.33;45.60;100734.41;20619467;28;20563;-68
2023/04/11 11:48:25;;;;;;;0.80;0.50;;;;;;;21.33;45.42;100755.25;20637061;28;20046;-69
2023/04/11 11:58:26;;;;;;;1.45;0.70;;;;;;;21.35;45.61;100764.06;20659588;28;20495;-69
2023/04/11 12:08:32;;;;;;;1.05;0.50;;;;;;;21.38;45.41;100774.56;20626837;28;20074;-68
2023/04/11 12:18:33;;;;;;;2.00;0.82;;;;;;;21.38;45.38;100772.69;20641438;28;20054;-68
2023/04/11 12:28:35;;;;;;;1.80;0.73;;;;;;;21.41;45.11;100779.66;20608876;28;20046;-67
2023/04/11 12:38:36;;;;;;;1.92;0.90;;;;;;;21.40;44.74;100791.50;20595842;28;20506;-68
2023/04/11 12:48:38;;;;;;;1.75;0.88;;;;;;;21.37;44.29;100800.78;20617753;28;20138;-68
2023/04/11 12:58:39;;;;;;;1.98;1.27;;;;;;;21.33;43.98;100806.69;20628199;28;20046;-68
2023/04/11 13:08:41;;;;;;;1.30;0.55;;;;;;;21.28;43.79;100826.97;20638963;28;20043;-67
2023/04/11 13:18:43;;;;;;;1.83;0.70;;;;;;;21.25;43.80;100830.00;20648317;28;20054;-67
2023/04/11 13:28:45;;;;;;;1.48;0.80;;;;;;;21.27;43.82;100838.81;20648265;28;20078;-67
2023/04/11 13:38:49;;;;;;;1.52;0.63;;;;;;;21.33;43.64;100845.44;20628966;28;20050;-67
2023/04/11 13:48:51;;;;;;;2.33;0.60;;;;;;;21.35;43.75;100861.53;20630614;28;20050;-66
2023/04/11 13:58:54;;;;;;;1.33;0.53;;;;;;;21.30;43.04;100849.31;20621460;28;20054;-67
2023/04/11 14:08:56;;;;;;;1.92;0.68;;;;;;;21.35;42.81;100853.41;20624446;28;20041;-66
2023/04/11 14:18:58;;;;;;;2.17;0.90;;;;;;;21.34;42.89;100849.00;20620889;28;20093;-66
2023/04/11 14:28:59;;;;;;;2.15;0.90;;;;;;;21.33;42.59;100869.81;20619378;28;20094;-66
2023/04/11 14:39:03;;;;;;;1.23;0.75;;;;;;;21.32;42.44;100875.41;20644497;28;20054;-66
2023/04/11 14:49:06;;;;;;;2.23;0.77;;;;;;;21.29;42.28;100874.72;20639972;28;20583;-67
2023/04/11 14:59:10;;;;;;;1.67;0.80;;;;;;;21.28;42.32;100872.13;20636083;28;20054;-66
2023/04/11 15:09:12;;;;;;;2.80;0.63;;;;;;;21.27;42.32;100874.00;20651881;28;20482;-70
2023/04/11 15:19:13;;;;;;;3.65;0.90;;;;;;;21.25;42.02;100873.34;20632882;28;20154;-68
2023/04/11 15:29:15;;;;;;;3.40;1.00;;;;;;;21.24;42.07;100871.63;20635258;28;20054;-70
2023/04/11 15:39:17;;;;;;;1.42;0.63;;;;;;;21.22;42.26;100868.22;20631354;28;20141;-70
2023/04/11 15:49:18;;;;;;;1.67;0.65;;;;;;;21.20;42.24;100864.81;20640176;28;20056;-70
2023/04/11 15:59:20;;;;;;;1.75;0.70;;;;;;;21.21;42.23;100861.13;20636047;28;20065;-69
2023/04/11 16:09:22;;;;;;;0.98;0.63;;;;;;;21.23;42.69;100842.88;20593956;28;20058;-68
2023/04/11 16:19:23;;;;;;;3.00;1.50;;;;;;;21.31;43.23;100842.03;20624635;28;20050;-69
2023/04/11 16:29:25;;;;;;;8.93;3.40;;;;;;;21.39;44.35;100836.66;20649095;28;20042;-66
2023/04/11 16:39:26;;;;;;;11.27;3.72;;;;;;;21.46;45.00;100820.63;20635709;28;20093;-69
2023/04/11 16:49:30;;;;;;;16.45;5.32;;;;;;;21.53;45.22;100816.25;20649854;28;20427;-70
2023/04/11 16:59:31;;;;;;;15.20;4.65;;;;;;;21.48;45.04;100813.19;20642551;28;20096;-70
2023/04/11 17:09:33;;;;;;;9.70;3.47;;;;;;;21.40;44.82;100822.09;20630765;28;20559;-69
2023/04/11 17:19:34;;;;;;;8.00;3.63;;;;;;;21.34;44.92;100816.50;20635938;28;20050;-67
2023/04/11 17:29:37;;;;;;;7.00;2.85;;;;;;;21.27;44.43;100813.59;20630804;28;20461;-67
2023/04/11 17:39:39;;;;;;;7.32;2.40;;;;;;;21.20;44.20;100807.97;20638159;28;20050;-67
2023/04/11 17:49:41;;;;;;;7.15;2.30;;;;;;;21.06;44.06;100785.06;20646073;28;20062;-68
2023/04/11 17:59:44;;;;;;;6.32;2.63;;;;;;;21.10;43.82;100793.69;20644675;28;20050;-70
2023/04/11 18:09:46;;;;;;;5.53;2.03;;;;;;;21.01;43.38;100785.53;20663692;28;20074;-70
2023/04/11 18:19:47;;;;;;;4.15;1.63;;;;;;;20.92;43.30;100786.50;20667186;28;20117;-70
2023/04/11 18:29:50;;;;;;;3.40;1.40;;;;;;;20.86;43.14;100781.72;20650718;28;20064;-69
2023/04/11 18:39:52;;;;;;;2.58;1.40;;;;;;;20.83;43.19;100774.75;20659633;28;20053;-69
2023/04/11 18:49:53;;;;;;;3.60;1.40;;;;;;;20.79;43.47;100764.44;20641289;28;20055;-68
2023/04/11 18:59:58;;;;;;;2.97;1.27;;;;;;;20.73;43.34;100753.19;20647741;28;20073;-68
2023/04/11 19:10:05;;;;;;;2.45;1.20;;;;;;;20.68;43.39;100752.81;20648478;28;20073;-68
2023/04/11 19:20:11;;;;;;;3.30;1.40;;;;;;;20.64;43.14;100729.78;20610124;28;20108;-68
2023/04/11 19:30:13;;;;;;;2.70;1.13;;;;;;;20.61;42.69;100724.72;20661043;28;20046;-68
2023/04/11 19:40:17;;;;;;;2.53;1.15;;;;;;;20.59;42.75;100721.31;20630063;28;20132;-68
2023/04/11 19:50:19;;;;;;;2.97;1.00;;;;;;;20.58;42.38;100703.38;20638061;28;20050;-68
2023/04/11 20:00:20;;;;;;;2.60;1.35;;;;;;;20.56;42.41;100700.84;20637114;28;20049;-69
2023/04/11 20:10:22;;;;;;;3.33;1.88;;;;;;;20.52;42.05;100687.81;20642959;28;20077;-68
2023/04/11 20:20:27;;;;;;;3.25;1.70;;;;;;;20.47;42.06;100669.34;20634644;28;20050;-68
2023/04/11 20:30:29;;;;;;;3.38;1.38;;;;;;;20.47;42.03;100652.28;20633565;28;20097;-68
2023/04/11 20:40:31;;;;;;;3.17;1.27;;;;;;;20.48;41.83;100637.75;20636740;28;20046;-68
2023/04/11 20:50:32;;;;;;;3.55;1.70;;;;;;;20.48;41.80;100621.53;20633818;28;20419;-68
2023/04/11 21:00:34;;;;;;;3.55;1.60;;;;;;;20.46;41.62;100586.53;20635330;28;20475;-68
2023/04/11 21:10:36;;;;;;;4.57;1.98;;;;;;;20.49;43.14;100569.97;20655799;28;20522;-68
2023/04/11 21:20:39;;;;;;;2.70;1.80;;;;;;;20.49;44.46;100551.03;20654387;28;20510;-68
2023/04/11 21:30:41;;;;;;;2.67;1.63;;;;;;;20.49;44.66;100542.09;20653750;28;20354;-68
2023/04/11 21:40:42;;;;;;;3.25;1.83;;;;;;;20.47;44.54;100528.72;20660720;28;20061;-69
2023/04/11 21:50:44;;;;;;;4.53;2.00;;;;;;;20.47;44.35;100522.50;20670042;28;20553;-68
2023/04/11 22:00:46;;;;;;;4.18;1.83;;;;;;;20.44;44.08;100504.72;20669394;28;20133;-68
2023/04/11 22:10:51;;;;;;;3.53;1.70;;;;;;;20.37;43.79;100474.81;20667687;28;20078;-68
2023/04/11 22:20:53;;;;;;;2.42;1.30;;;;;;;20.39;43.49;100458.41;20668888;28;20062;-69
2023/04/11 22:30:56;;;;;;;2.33;1.20;;;;;;;20.37;43.34;100453.19;20668187;28;20054;-68
2023/04/11 22:40:57;;;;;;;2.33;1.20;;;;;;;20.36;43.07;100424.47;20666334;28;20089;-68
2023/04/11 22:50:59;;;;;;;1.38;0.98;;;;;;;20.33;43.09;100391.50;20664980;28;20050;-69
2023/04/11 23:01:00;;;;;;;2.47;1.25;;;;;;;20.31;42.75;100372.72;20663805;28;20723;-69
2023/04/11 23:11:02;;;;;;;2.28;1.27;;;;;;;20.28;42.47;100351.41;20664591;28;20113;-68
2023/04/11 23:21:04;;;;;;;2.92;1.20;;;;;;;20.26;42.22;100338.09;20663453;28;20108;-68
2023/04/11 23:31:06;;;;;;;2.15;1.35;;;;;;;20.24;42.26;100317.63;20644831;28;20058;-68
2023/04/11 23:41:08;;;;;;;2.20;1.00;;;;;;;20.21;42.18;100290.94;20661743;28;20058;-68
2023/04/11 23:51:09;;;;;;;2.83;1.00;;;;;;;20.18;42.24;100270.50;20661434;28;20050;-68
